Aeroporto :
LOGIN :

Iscrizione | Disclaimer

   EN    FR    IT 

 










Sommario :    VFR   VFR Marginale   IFR   IFR Intensivo   IFR Molto Intensivo
Visibilità : 
Base nubi : 
>= 8 km
>= 3000ft
5 / 8 km
1000 / 3000 ft
1500m / 5 km
500 / 1000 ft
800 / 1500m
200 / 500 ft
< 800m
< 200 ft
Simboli :   Temporali  Nebbia  Neve Forte  Precipitazioni Forti  Vento > 20 kt
SIGMETs :   Varie  Temporali  Ghiacco  Turbolenza  Onda orograficha  Ceneri Vulcaniche






- Altitudine del aeroporto : 1789 ft
- Codice IATA : PRN


BKPR - Pristina

ULTIMO METAR :
  • 220130Z VRB03KT CAVOK M08/M11 Q1036 NOSIG RMK 17010095

METARs OBSOLETI :
  • 220100Z VRB02KT CAVOK M07/M10 Q1036 NOSIG RMK 17010095
  • 220030Z VRB02KT CAVOK M07/M09 Q1036 NOSIG RMK 17010095
  • 220000Z VRB02KT CAVOK M07/M09 Q1036 NOSIG RMK 17010095
  • 212330Z 01004KT CAVOK M07/M09 Q1037 NOSIG RMK 17010095
  • 212300Z 00000KT CAVOK M06/M09 Q1037 NOSIG RMK 17010095

TAF TAF BKPR
Valido dal 22 a 00 ore il 23 a 00 ore UTC


212330Z 2200/2224 VRB03KT CAVOK
TEMPO 2203/2208 4000 BR



MetMap, La meteo Aeronautica in un colpo d'occhio ! - Copyright ORBIFLY Dicembre 2007 - Disclaimer

ORBIFLY MET'MAP TEAM :

Programmazione e sviluppo : Alexandra Zaïnal
Concezione : Baudouin d'Aumeries
Aiuto per la programmazione : Marc-Olivier Méhu
Supporto tecnico e logistico : Manuel Goepfert
Aiuto per la traduzione : Arnaldo La Scala

Contatto : metmap@orbifly.com




FONTI E CREDITI :

   NOAA